createdAt,value
2019-02-26T00:01:08.266Z,59.26
2019-02-26T00:03:44.008Z,58.98
2019-02-26T00:06:20.673Z,59.15
2019-02-26T00:09:00.800Z,59.17
2019-02-26T00:11:36.313Z,59.31
2019-02-26T00:14:15.526Z,59.43
2019-02-26T00:16:51.015Z,59.75
2019-02-26T00:19:26.923Z,59.96
2019-02-26T00:22:02.781Z,59.90
2019-02-26T00:24:39.809Z,59.93
2019-02-26T00:27:16.232Z,59.99
2019-02-26T00:29:53.132Z,60.13
2019-02-26T00:32:30.271Z,60.12
2019-02-26T00:35:07.065Z,60.11
2019-02-26T00:37:44.020Z,60.08
2019-02-26T00:40:20.392Z,60.11
2019-02-26T00:42:57.542Z,60.19
2019-02-26T00:45:34.565Z,60.27
2019-02-26T00:48:11.454Z,59.99
2019-02-26T00:50:47.200Z,60.13
2019-02-26T00:53:23.576Z,59.99
2019-02-26T00:56:01.050Z,59.84
2019-02-26T00:58:39.305Z,59.60
2019-02-26T01:01:17.741Z,59.55
2019-02-26T01:03:53.543Z,59.30
2019-02-26T01:06:31.052Z,59.26
2019-02-26T01:09:10.679Z,59.20
2019-02-26T01:11:47.521Z,59.00
2019-02-26T01:14:24.694Z,58.93
2019-02-26T01:17:01.097Z,58.77
2019-02-26T01:19:38.674Z,58.37
2019-02-26T01:22:14.658Z,58.43
2019-02-26T01:24:51.965Z,58.39
2019-02-26T01:27:28.573Z,58.46
2019-02-26T01:30:06.950Z,58.41
2019-02-26T01:32:42.779Z,58.63
2019-02-26T01:35:18.632Z,58.76
2019-02-26T01:37:55.863Z,58.87
2019-02-26T01:40:31.981Z,59.10
2019-02-26T01:43:07.838Z,59.30
2019-02-26T01:45:45.743Z,59.58
2019-02-26T01:48:21.276Z,59.64
2019-02-26T01:50:59.043Z,59.99
2019-02-26T01:53:34.629Z,60.04
2019-02-26T01:56:10.493Z,60.30
2019-02-26T01:58:46.228Z,60.57
2019-02-26T02:01:23.862Z,60.70
2019-02-26T02:03:59.589Z,61.00
2019-02-26T02:06:36.936Z,61.32
2019-02-26T02:09:13.992Z,61.60
2019-02-26T02:11:50.633Z,61.79
2019-02-26T02:14:26.479Z,61.94
2019-02-26T02:17:03.610Z,62.16
2019-02-26T02:19:39.721Z,62.46
2019-02-26T02:22:16.836Z,62.61
2019-02-26T02:24:55.677Z,62.97
2019-02-26T02:27:33.256Z,63.08
2019-02-26T02:30:18.575Z,63.27
2019-02-26T02:32:52.330Z,63.54
2019-02-26T02:35:29.294Z,63.67
2019-02-26T02:38:05.153Z,63.59
2019-02-26T02:40:43.180Z,63.74
2019-02-26T02:43:23.006Z,63.95
2019-02-26T02:45:59.040Z,64.01
2019-02-26T02:48:34.695Z,64.23
2019-02-26T02:51:13.489Z,64.42
2019-02-26T02:53:50.497Z,64.73
2019-02-26T02:56:25.753Z,64.88
2019-02-26T02:59:03.419Z,64.97
2019-02-26T03:01:39.197Z,65.29
2019-02-26T03:04:19.651Z,65.44
2019-02-26T03:06:53.730Z,65.65
2019-02-26T03:09:31.695Z,65.74
2019-02-26T03:12:08.150Z,65.84
2019-02-26T03:14:44.506Z,65.99
2019-02-26T03:17:22.745Z,66.17
2019-02-26T03:20:02.714Z,66.32
2019-02-26T03:22:39.704Z,66.41
2019-02-26T03:25:20.521Z,66.44
2019-02-26T03:27:54.738Z,66.51
2019-02-26T03:30:33.909Z,66.52
2019-02-26T03:33:08.087Z,66.47
2019-02-26T03:35:43.849Z,66.54
2019-02-26T03:38:20.727Z,66.67
2019-02-26T03:40:59.051Z,66.80
2019-02-26T03:43:37.042Z,67.04
2019-02-26T03:46:12.579Z,66.96
2019-02-26T03:48:48.420Z,67.03
2019-02-26T03:51:24.286Z,67.23
2019-02-26T03:54:00.125Z,67.25
2019-02-26T03:56:36.097Z,67.50
2019-02-26T03:59:11.940Z,67.60
2019-02-26T04:01:47.799Z,67.76
2019-02-26T04:04:25.642Z,67.90
2019-02-26T04:07:04.303Z,67.88
2019-02-26T04:09:44.043Z,68.09
2019-02-26T04:12:18.442Z,68.21
2019-02-26T04:14:54.536Z,68.14
2019-02-26T04:17:31.463Z,68.08
2019-02-26T04:20:09.980Z,68.24
2019-02-26T04:22:50.025Z,68.42
2019-02-26T04:25:36.446Z,68.50
2019-02-26T04:28:15.433Z,68.49
2019-02-26T04:31:02.577Z,68.58
2019-02-26T04:33:59.546Z,68.50
2019-02-26T04:36:50.337Z,68.59
2019-02-26T04:39:47.303Z,68.57
2019-02-26T04:42:38.380Z,68.62
2019-02-26T04:45:32.852Z,68.72
2019-02-26T04:48:19.523Z,68.66
2019-02-26T04:50:54.790Z,68.75
2019-02-26T04:53:33.870Z,68.72
2019-02-26T04:56:14.405Z,68.83
2019-02-26T04:58:47.801Z,68.96
2019-02-26T05:01:23.730Z,68.91
2019-02-26T05:03:59.799Z,69.03
2019-02-26T05:06:35.638Z,69.47
2019-02-26T05:09:11.506Z,69.69
2019-02-26T05:11:47.360Z,70.12
2019-02-26T05:14:23.688Z,70.17
2019-02-26T05:16:59.469Z,70.29
2019-02-26T05:19:36.535Z,70.24
2019-02-26T05:22:12.816Z,70.39
2019-02-26T05:24:50.376Z,70.40
2019-02-26T05:27:26.272Z,70.51
2019-02-26T05:30:02.461Z,70.55
2019-02-26T05:32:38.385Z,70.58
2019-02-26T05:35:15.360Z,70.40
2019-02-26T05:37:51.736Z,70.56
2019-02-26T05:40:27.583Z,70.52
2019-02-26T05:43:04.670Z,70.52
2019-02-26T05:45:41.039Z,70.74
2019-02-26T05:48:20.156Z,71.04
2019-02-26T05:50:54.486Z,71.17
2019-02-26T05:53:30.195Z,71.19
2019-02-26T05:56:06.088Z,71.23
2019-02-26T05:58:44.144Z,71.25
2019-02-26T06:01:21.873Z,70.96
2019-02-26T06:03:57.025Z,70.64
2019-02-26T06:06:32.776Z,70.31
2019-02-26T06:09:08.636Z,70.03
2019-02-26T06:11:49.424Z,69.82
2019-02-26T06:14:24.647Z,69.76
2019-02-26T06:17:01.729Z,69.46
2019-02-26T06:19:49.137Z,69.25
2019-02-26T06:22:27.200Z,68.65
2019-02-26T06:25:07.092Z,68.29
2019-02-26T06:27:40.033Z,68.06
2019-02-26T06:30:15.860Z,68.09
2019-02-26T06:32:51.625Z,67.67
2019-02-26T06:35:27.404Z,67.39
2019-02-26T06:38:04.604Z,66.87
2019-02-26T06:40:41.988Z,66.81
2019-02-26T06:43:18.580Z,66.59
2019-02-26T06:45:54.326Z,66.47
2019-02-26T06:48:32.231Z,66.34
2019-02-26T06:51:07.695Z,66.28
2019-02-26T06:53:47.085Z,66.24
2019-02-26T06:56:21.060Z,66.22
2019-02-26T06:58:58.412Z,65.96
2019-02-26T07:01:35.263Z,66.06
2019-02-26T07:04:12.901Z,66.27
2019-02-26T07:06:48.884Z,66.61
2019-02-26T07:09:24.690Z,66.78
2019-02-26T07:12:00.474Z,67.27
2019-02-26T07:14:36.206Z,67.40
2019-02-26T07:17:11.961Z,67.84
2019-02-26T07:19:47.810Z,67.90
2019-02-26T07:22:23.602Z,68.02
2019-02-26T07:24:59.448Z,68.13
2019-02-26T07:27:35.983Z,68.07
2019-02-26T07:30:13.087Z,67.97
2019-02-26T07:32:48.886Z,67.96
2019-02-26T07:35:24.676Z,68.01
2019-02-26T07:38:01.327Z,68.25
2019-02-26T07:40:40.369Z,68.32
2019-02-26T07:43:17.954Z,68.04
2019-02-26T07:45:53.112Z,68.40
2019-02-26T07:48:31.258Z,68.56
2019-02-26T07:51:06.972Z,68.41
2019-02-26T07:53:47.986Z,68.31
2019-02-26T07:56:21.172Z,68.37
2019-02-26T07:59:01.282Z,68.44
2019-02-26T08:01:37.475Z,68.40
2019-02-26T08:04:13.596Z,68.51
2019-02-26T08:06:52.367Z,68.15
2019-02-26T08:09:27.896Z,68.20
2019-02-26T08:12:04.343Z,68.03
2019-02-26T08:14:42.924Z,68.48
2019-02-26T08:17:18.933Z,68.60
2019-02-26T08:19:54.793Z,69.06
2019-02-26T08:22:32.358Z,68.63
2019-02-26T08:25:09.473Z,68.58
2019-02-26T08:27:45.313Z,68.47
2019-02-26T08:30:23.482Z,68.17
2019-02-26T08:32:59.773Z,68.51
2019-02-26T08:35:36.361Z,68.52
2019-02-26T08:38:12.220Z,68.62
2019-02-26T08:40:48.078Z,68.74
2019-02-26T08:43:23.921Z,69.27
2019-02-26T08:45:59.782Z,69.42
2019-02-26T08:48:35.638Z,70.18
2019-02-26T08:51:14.322Z,70.22
2019-02-26T08:53:49.501Z,70.20
2019-02-26T08:56:28.308Z,69.80
2019-02-26T08:59:04.056Z,69.61
2019-02-26T09:01:39.914Z,69.70
2019-02-26T09:04:17.479Z,70.10
2019-02-26T09:06:54.705Z,70.12
2019-02-26T09:09:32.826Z,70.24
2019-02-26T09:12:08.859Z,70.40
2019-02-26T09:14:47.062Z,70.67
2019-02-26T09:17:25.500Z,71.07
2019-02-26T09:20:09.473Z,71.22
2019-02-26T09:22:37.499Z,71.55
2019-02-26T09:25:14.242Z,71.47
2019-02-26T09:27:50.033Z,71.52
2019-02-26T09:30:28.179Z,72.12
2019-02-26T09:33:05.852Z,72.43
2019-02-26T09:35:41.890Z,72.01
2019-02-26T09:38:20.083Z,72.22
2019-02-26T09:40:57.114Z,72.37
2019-02-26T09:43:33.043Z,72.67
2019-02-26T09:46:12.345Z,72.64
2019-02-26T09:48:46.391Z,72.52
2019-02-26T09:51:22.234Z,72.50
2019-02-26T09:53:58.983Z,72.88
2019-02-26T09:56:34.975Z,72.80
2019-02-26T09:59:13.009Z,72.57
2019-02-26T10:01:48.724Z,72.48
2019-02-26T10:04:26.400Z,72.70
2019-02-26T10:07:04.070Z,72.63
2019-02-26T10:09:40.743Z,72.84
2019-02-26T10:12:17.976Z,72.50
2019-02-26T10:14:54.661Z,72.34
2019-02-26T10:17:33.325Z,72.47
2019-02-26T10:20:11.794Z,72.39
2019-02-26T10:22:47.639Z,72.37
2019-02-26T10:25:26.431Z,71.98
2019-02-26T10:28:06.089Z,71.67
2019-02-26T10:30:41.685Z,71.31
2019-02-26T10:33:18.216Z,71.39
2019-02-26T10:35:55.008Z,70.71
2019-02-26T10:38:33.201Z,69.71
2019-02-26T10:41:08.445Z,68.97
2019-02-26T10:43:44.504Z,69.08
2019-02-26T10:46:20.371Z,68.90
2019-02-26T10:48:56.223Z,69.16
2019-02-26T10:51:32.065Z,68.99
2019-02-26T10:54:09.628Z,68.89
2019-02-26T10:56:45.363Z,68.75
2019-02-26T10:59:23.513Z,68.78
2019-02-26T11:02:00.749Z,68.73
2019-02-26T11:04:41.039Z,68.17
2019-02-26T11:07:14.264Z,68.85
2019-02-26T11:09:53.596Z,68.63
2019-02-26T11:12:33.357Z,68.27
2019-02-26T11:15:09.908Z,67.62
2019-02-26T11:17:47.855Z,67.10
2019-02-26T11:20:27.831Z,66.80
2019-02-26T11:23:05.477Z,66.55
2019-02-26T11:25:39.682Z,66.57
2019-02-26T11:28:15.538Z,66.59
2019-02-26T11:30:54.023Z,66.74
2019-02-26T11:33:28.884Z,66.37
2019-02-26T11:36:05.512Z,66.14
2019-02-26T11:38:44.383Z,66.02
2019-02-26T11:41:19.994Z,65.93
2019-02-26T11:43:55.776Z,66.18
2019-02-26T11:46:34.339Z,66.12
2019-02-26T11:49:09.869Z,66.43
2019-02-26T11:51:46.614Z,65.23
2019-02-26T11:54:22.460Z,64.89
2019-02-26T11:56:58.325Z,65.10
2019-02-26T11:59:35.769Z,65.23
2019-02-26T12:02:11.669Z,64.53
2019-02-26T12:04:47.511Z,64.35
2019-02-26T12:07:25.606Z,65.02
2019-02-26T12:10:07.184Z,64.63
2019-02-26T12:12:39.303Z,65.02
2019-02-26T12:15:17.178Z,64.69
2019-02-26T12:17:54.148Z,65.11
2019-02-26T12:20:31.556Z,65.62
2019-02-26T12:23:07.975Z,65.53
2019-02-26T12:25:44.497Z,64.93
2019-02-26T12:28:20.351Z,65.24
2019-02-26T12:30:58.396Z,64.49
2019-02-26T12:33:33.792Z,64.08
2019-02-26T12:38:50.349Z,64.53
2019-02-26T12:41:26.117Z,64.49
2019-02-26T12:44:05.777Z,64.74
2019-02-26T12:46:40.427Z,65.59
2019-02-26T12:49:18.432Z,65.16
2019-02-26T12:51:56.677Z,64.59
2019-02-26T12:54:33.489Z,64.60
2019-02-26T12:57:09.075Z,64.67
2019-02-26T12:59:45.138Z,64.96
2019-02-26T13:02:24.601Z,65.45
2019-02-26T13:04:58.475Z,65.69
2019-02-26T13:07:34.335Z,65.58
2019-02-26T13:10:18.584Z,65.51
2019-02-26T13:12:59.309Z,65.84
2019-02-26T13:15:31.922Z,65.69
2019-02-26T13:18:07.791Z,65.41
2019-02-26T13:20:43.575Z,65.65
2019-02-26T13:23:21.607Z,65.25
2019-02-26T13:25:57.401Z,65.80
2019-02-26T13:28:33.235Z,65.17
2019-02-26T13:31:13.527Z,64.61
2019-02-26T13:33:46.569Z,64.04
2019-02-26T13:36:22.412Z,64.26
2019-02-26T13:38:58.410Z,63.67
2019-02-26T13:41:38.848Z,64.50
2019-02-26T13:44:11.849Z,63.98
2019-02-26T13:46:47.646Z,63.78
2019-02-26T13:49:23.766Z,64.08
2019-02-26T13:51:59.533Z,63.82
2019-02-26T13:54:35.376Z,62.99
2019-02-26T13:57:11.194Z,63.01
2019-02-26T13:59:47.042Z,63.26
2019-02-26T14:02:22.930Z,62.90
2019-02-26T14:04:58.679Z,62.53
2019-02-26T14:07:34.868Z,62.43
2019-02-26T14:10:13.734Z,62.25
2019-02-26T14:12:49.628Z,62.43
2019-02-26T14:15:31.294Z,62.58
2019-02-26T14:18:07.040Z,62.65
2019-02-26T14:20:43.049Z,62.73
2019-02-26T14:23:18.802Z,63.16
2019-02-26T14:25:54.618Z,63.09
2019-02-26T14:28:30.433Z,63.29
2019-02-26T14:31:06.209Z,63.34
2019-02-26T14:33:43.295Z,63.53
2019-02-26T14:36:19.105Z,62.78
2019-02-26T14:38:54.889Z,62.87
2019-02-26T14:41:30.634Z,62.85
2019-02-26T14:44:06.464Z,62.53
2019-02-26T14:46:42.211Z,62.62
2019-02-26T14:49:18.395Z,62.52
2019-02-26T14:51:54.144Z,62.71
2019-02-26T14:54:29.888Z,63.07
2019-02-26T14:57:05.837Z,63.06
2019-02-26T14:59:41.589Z,63.66
2019-02-26T15:02:17.704Z,63.64
2019-02-26T15:04:53.500Z,63.42
2019-02-26T15:07:30.597Z,63.59
2019-02-26T15:10:09.120Z,63.57
2019-02-26T15:12:44.885Z,63.85
2019-02-26T15:15:20.805Z,64.00
2019-02-26T15:17:56.562Z,64.29
2019-02-26T15:20:32.368Z,64.43
2019-02-26T15:23:08.441Z,64.37
2019-02-26T15:25:44.214Z,64.40
2019-02-26T15:28:20.046Z,64.71
2019-02-26T15:30:55.898Z,65.13
2019-02-26T15:33:31.758Z,65.38
2019-02-26T15:36:07.491Z,65.64
2019-02-26T15:38:43.359Z,66.07
2019-02-26T15:41:19.124Z,66.12
2019-02-26T15:43:56.523Z,66.25
2019-02-26T15:46:32.865Z,66.57
2019-02-26T15:49:08.723Z,66.82
2019-02-26T15:51:44.458Z,67.31
2019-02-26T15:54:20.323Z,67.45
2019-02-26T15:56:57.651Z,67.59
2019-02-26T15:59:35.615Z,67.84
2019-02-26T16:02:11.165Z,68.02
2019-02-26T16:04:47.429Z,68.11
2019-02-26T16:07:23.286Z,68.52
2019-02-26T16:09:59.122Z,68.71
2019-02-26T16:12:34.871Z,68.83
2019-02-26T16:15:15.499Z,69.00
2019-02-26T16:17:51.300Z,69.16
2019-02-26T16:20:27.146Z,69.22
2019-02-26T16:23:03.019Z,69.15
2019-02-26T16:25:38.958Z,69.30
2019-02-26T16:28:15.018Z,69.42
2019-02-26T16:30:50.878Z,69.65
2019-02-26T16:33:27.086Z,69.71
2019-02-26T16:36:03.357Z,69.88
2019-02-26T16:38:39.452Z,70.11
2019-02-26T16:41:16.232Z,70.32
2019-02-26T16:43:52.435Z,70.51
2019-02-26T16:46:28.279Z,70.51
2019-02-26T16:49:04.031Z,70.59
2019-02-26T16:51:39.871Z,70.32
2019-02-26T16:54:15.633Z,70.17
2019-02-26T16:56:54.328Z,70.05
2019-02-26T16:59:28.892Z,70.13
2019-02-26T17:02:04.959Z,69.96
2019-02-26T17:04:58.346Z,69.81
2019-02-26T17:07:34.387Z,69.63
2019-02-26T17:10:18.184Z,69.63
2019-02-26T17:12:55.548Z,69.99
2019-02-26T17:15:33.373Z,70.01
2019-02-26T17:18:10.355Z,70.42
2019-02-26T17:20:46.107Z,70.51
2019-02-26T17:23:23.371Z,71.02
2019-02-26T17:26:00.620Z,71.23
2019-02-26T17:28:36.950Z,71.31
2019-02-26T17:31:12.752Z,71.58
2019-02-26T17:33:48.528Z,71.70
2019-02-26T17:36:25.341Z,72.13
2019-02-26T17:39:01.114Z,72.13
2019-02-26T17:41:38.431Z,72.49
2019-02-26T17:44:14.508Z,72.95
2019-02-26T17:46:50.260Z,72.94
2019-02-26T17:49:26.019Z,73.23
2019-02-26T17:52:01.809Z,73.47
2019-02-26T17:54:37.681Z,73.38
2019-02-26T17:57:13.529Z,73.60
2019-02-26T17:59:49.285Z,73.63
2019-02-26T18:02:27.368Z,73.76
2019-02-26T18:05:02.752Z,74.16
2019-02-26T18:07:39.033Z,74.26
2019-02-26T18:10:16.887Z,74.16
2019-02-26T18:12:54.005Z,74.09
2019-02-26T18:15:29.940Z,74.01
2019-02-26T18:18:05.858Z,74.05
2019-02-26T18:20:41.637Z,74.18
2019-02-26T18:23:17.355Z,74.06
2019-02-26T18:25:53.179Z,74.06
2019-02-26T18:28:28.996Z,73.91
2019-02-26T18:31:04.794Z,73.99
2019-02-26T18:33:40.606Z,73.89
2019-02-26T18:36:17.467Z,73.77
2019-02-26T18:39:10.812Z,73.87
2019-02-26T18:41:59.144Z,73.80
2019-02-26T18:44:35.823Z,73.74
2019-02-26T18:47:11.887Z,73.79
2019-02-26T18:49:55.549Z,73.85
2019-02-26T18:52:31.119Z,74.01
2019-02-26T18:55:12.695Z,74.19
2019-02-26T18:57:48.716Z,74.60
2019-02-26T19:00:29.593Z,74.61
2019-02-26T19:03:08.716Z,74.64
2019-02-26T19:05:43.847Z,74.64
2019-02-26T19:08:19.696Z,74.76
2019-02-26T19:10:55.553Z,75.03
2019-02-26T19:13:33.275Z,75.21
2019-02-26T19:16:08.905Z,75.31
2019-02-26T19:18:44.863Z,75.82
2019-02-26T19:21:22.297Z,75.86
2019-02-26T19:23:58.414Z,76.30
2019-02-26T19:26:34.263Z,76.17
2019-02-26T19:29:10.218Z,76.63
2019-02-26T19:31:47.200Z,77.02
2019-02-26T19:34:23.053Z,77.23
2019-02-26T19:36:58.906Z,77.30
2019-02-26T19:39:34.763Z,77.66
2019-02-26T19:42:10.576Z,77.83
2019-02-26T19:44:46.370Z,77.93
2019-02-26T19:47:22.794Z,78.24
2019-02-26T19:49:59.205Z,78.36
2019-02-26T19:52:35.061Z,78.58
2019-02-26T19:55:16.643Z,78.33
2019-02-26T19:57:52.510Z,78.63
2019-02-26T20:00:28.350Z,78.66
2019-02-26T20:03:05.482Z,78.80
2019-02-26T20:05:45.931Z,78.86
2019-02-26T20:08:19.608Z,79.01
2019-02-26T20:10:55.466Z,79.15
2019-02-26T20:13:31.736Z,79.29
2019-02-26T20:16:08.901Z,79.29
2019-02-26T20:18:44.753Z,79.53
2019-02-26T20:21:20.606Z,79.72
2019-02-26T20:23:56.471Z,79.60
2019-02-26T20:26:32.312Z,79.60
2019-02-26T20:29:08.402Z,79.65
2019-02-26T20:31:44.345Z,79.76
2019-02-26T20:34:20.203Z,79.91
2019-02-26T20:36:56.041Z,79.72
2019-02-26T20:39:31.899Z,79.89
2019-02-26T20:42:07.751Z,79.85
2019-02-26T20:44:45.445Z,79.80
2019-02-26T20:47:21.206Z,79.74
2019-02-26T20:49:57.050Z,79.81
2019-02-26T20:52:33.429Z,80.07
2019-02-26T20:55:11.784Z,80.30
2019-02-26T20:57:47.686Z,80.12
2019-02-26T21:00:25.242Z,80.32
2019-02-26T21:03:01.029Z,80.35
2019-02-26T21:05:37.295Z,80.41
2019-02-26T21:08:13.168Z,80.76
2019-02-26T21:10:50.848Z,80.64
2019-02-26T21:13:26.597Z,80.63
2019-02-26T21:16:02.458Z,80.59
2019-02-26T21:18:39.383Z,80.65
2019-02-26T21:21:15.293Z,80.94
2019-02-26T21:23:52.277Z,80.71
2019-02-26T21:26:29.252Z,80.76
2019-02-26T21:29:06.272Z,80.93
2019-02-26T21:31:42.404Z,80.88
2019-02-26T21:34:18.248Z,80.89
2019-02-26T21:36:54.102Z,80.93
2019-02-26T21:39:29.956Z,80.92
2019-02-26T21:42:05.818Z,80.70
2019-02-26T21:44:42.372Z,81.04
2019-02-26T21:50:29.229Z,81.24
2019-02-26T21:53:05.917Z,81.16
2019-02-26T21:55:44.293Z,81.24
2019-02-26T21:58:19.574Z,81.53
2019-02-26T22:01:30.367Z,81.31
2019-02-26T22:04:16.718Z,81.38
2019-02-26T22:06:52.453Z,81.46
2019-02-26T22:09:30.155Z,81.66
2019-02-26T22:12:05.807Z,81.66
2019-02-26T22:14:41.661Z,81.85
2019-02-26T22:17:17.513Z,81.85
2019-02-26T22:19:53.376Z,81.99
2019-02-26T22:22:29.267Z,81.85
2019-02-26T22:25:09.658Z,82.36
2019-02-26T22:27:43.606Z,82.17
2019-02-26T22:30:21.965Z,82.20
2019-02-26T22:32:57.567Z,82.45
2019-02-26T22:35:33.417Z,82.54
2019-02-26T22:38:09.258Z,82.73
2019-02-26T22:40:45.121Z,83.26
2019-02-26T22:43:20.977Z,83.16
2019-02-26T22:46:00.750Z,83.33
2019-02-26T22:48:34.338Z,83.55
2019-02-26T22:51:10.181Z,83.57
2019-02-26T22:53:46.031Z,83.44
2019-02-26T22:56:24.240Z,83.75
2019-02-26T22:58:59.522Z,84.11
2019-02-26T23:01:40.038Z,83.71
2019-02-26T23:04:19.678Z,83.82
2019-02-26T23:06:54.421Z,84.33
2019-02-26T23:09:30.776Z,84.16
2019-02-26T23:12:07.445Z,84.41
2019-02-26T23:14:43.506Z,84.62
2019-02-26T23:17:19.672Z,84.73
2019-02-26T23:19:56.341Z,84.89
2019-02-26T23:22:32.190Z,84.68
2019-02-26T23:25:09.788Z,84.82
2019-02-26T23:27:48.687Z,85.22
2019-02-26T23:30:24.911Z,85.24
2019-02-26T23:33:02.242Z,85.56
2019-02-26T23:35:38.539Z,85.41
2019-02-26T23:38:14.298Z,85.47
2019-02-26T23:40:50.153Z,85.18
2019-02-26T23:43:25.993Z,85.43
2019-02-26T23:46:01.851Z,85.54
2019-02-26T23:48:40.756Z,85.39
2019-02-26T23:51:20.100Z,85.55
2019-02-26T23:53:53.709Z,85.96
2019-02-26T23:56:29.563Z,85.85
2019-02-26T23:59:05.411Z,85.71
